CZFM/ZFM METAR and TAF weather

Enter ICAO airport designator
Station Type Date Time Source
CZFM METAR 2020/09/30 15:00 UTC NOAA

CZFM 301500Z 14002KT 1 1/4SM BR SKC M03/M04 A3027 RMK SLP254


Station Type Date Time Source
CZFM Decoded METAR 2020/09/30 15:00 UTC NOAA

Fort Mcpherson Airport, Canada (CZFM) 67-24N 134-51W
Sep 30, 2020 - 11:00 AM EDT / 2020.09.30 1500 UTC
Wind: from the SE (140 degrees) at 2 MPH (2 KT):0
Visibility: 1 1/4 mile(s):0
Sky conditions: clear
Weather: mist
Temperature: 26 F (-3 C)
Dew Point: 24 F (-4 C)
Relative Humidity: 92%
Pressure (altimeter): 30.27 in. Hg (1025 hPa)
ob: CZFM 301500Z 14002KT 1 1/4SM BR SKC M03/M04 A3027 RMK SLP254
cycle: 15

Station Type Date Time Source
CZFM TAF 2020/09/30 15:00 UTC NOAA

TAF CZFM 301438Z 3015/3023 14005KT 3/4SM BR FEW003
TEMPO 3015/3016 3SM BR SKC
FM301600 VRB03KT P6SM SKC
TEMPO 3016/3018 2SM BR
FM301800 VRB03KT P6SM SCT020
RMK NXT FCST BY 301900Z

Example: see airport list